Pagina principale
METAR-TAF:

METAR-TAF

Aeroporti :

Air Force Base Langebaanweg

Langebaan, Sudafrica

latitudine: 32-58-08S, longitudine: 018-09-55E, altezza: 33 m

Osservazione

Il bollettino è stato emesso 1 ora e 13 minuti fa, alle 05:00 UTC
Vento 7 kt da sud-ovest
Temperature 12°C
Umidità 71%
Pressione 1015 hPa

METAR: FALW 180500Z AUTO 22007KT //// // ////// 12/07 Q1015

Ora: 08:13 (06:13 UTC)


TAF: mancante

Osservazioni e previsioni meteorologiche di più di 4000 aeroporti (messaggi METAR e TAF).

Le stazioni disponibili sono rappresentate dai dischi gialli e rossi sulla carta.

Puntare il mouse per vedere il nome della stazione.

Clicca sopra per visualizzare le osservazioni e previsioni meteorologiche.

Per cambiare la mappa : fare clic sui pulsanti verdi con una croce nera per ingrandire, il pulsante verde con un trattino per diminuire, o sulla freccia verde per le mappe adiacenti.


METAR-TAF: